Terminal Aerodrome Forecast
Issued by NWS

Home | Current Version | Previous Version | Text Only | Print | Product List | Glossary On
Versions: 1 2 3 4 5 6 7 8 9 10 11 12
000
FTUS45 KABQ 221700
TAFGUP
TAF
KGUP 221739Z 2218/2318 05009KT P6SM VCSH BKN100
     FM222230 10009G16KT P6SM VCTS BKN090CB
     FM230130 13007KT P6SM VCSH BKN100
     FM230500 10003KT P6SM BKN110
     FM231000 07001KT P6SM BKN120=

USA.gov is the U.S. government's official web portal to all federal, state and local government web resources and services.